sensor_id;sensor_type;location;lat;lon;timestamp;P1;durP1;ratioP1;P2;durP2;ratioP2
966;SDS011;56108;48.730;9.304;2022-08-21T00:01:56;5.65;;;5.25;;
966;SDS011;56108;48.730;9.304;2022-08-21T00:04:05;5.80;;;5.30;;
966;SDS011;56108;48.730;9.304;2022-08-21T00:06:25;6.28;;;5.07;;
966;SDS011;56108;48.730;9.304;2022-08-21T00:08:34;5.38;;;4.75;;
966;SDS011;56108;48.730;9.304;2022-08-21T00:10:42;5.65;;;4.78;;
966;SDS011;56108;48.730;9.304;2022-08-21T00:12:54;5.88;;;5.38;;
966;SDS011;56108;48.730;9.304;2022-08-21T00:15:04;5.30;;;4.90;;
966;SDS011;56108;48.730;9.304;2022-08-21T00:17:15;5.00;;;4.60;;
966;SDS011;56108;48.730;9.304;2022-08-21T00:19:23;7.57;;;5.00;;
966;SDS011;56108;48.730;9.304;2022-08-21T00:21:34;6.63;;;4.65;;
966;SDS011;56108;48.730;9.304;2022-08-21T00:23:43;5.65;;;4.78;;
966;SDS011;56108;48.730;9.304;2022-08-21T00:25:52;5.30;;;4.78;;
966;SDS011;56108;48.730;9.304;2022-08-21T00:28:03;6.60;;;4.90;;
966;SDS011;56108;48.730;9.304;2022-08-21T00:30:11;4.63;;;4.30;;
966;SDS011;56108;48.730;9.304;2022-08-21T00:32:27;5.53;;;5.13;;
966;SDS011;56108;48.730;9.304;2022-08-21T00:34:36;6.38;;;5.38;;
966;SDS011;56108;48.730;9.304;2022-08-21T00:36:43;4.90;;;4.50;;
966;SDS011;56108;48.730;9.304;2022-08-21T00:38:52;5.18;;;4.78;;
966;SDS011;56108;48.730;9.304;2022-08-21T00:41:00;5.82;;;5.30;;
966;SDS011;56108;48.730;9.304;2022-08-21T00:43:37;5.68;;;5.18;;
966;SDS011;56108;48.730;9.304;2022-08-21T00:45:46;5.43;;;4.93;;
966;SDS011;56108;48.730;9.304;2022-08-21T00:47:56;5.13;;;4.68;;
966;SDS011;56108;48.730;9.304;2022-08-21T00:50:07;5.20;;;4.80;;
966;SDS011;56108;48.730;9.304;2022-08-21T00:52:26;5.55;;;5.15;;
966;SDS011;56108;48.730;9.304;2022-08-21T00:54:37;6.13;;;5.53;;
966;SDS011;56108;48.730;9.304;2022-08-21T00:56:52;7.45;;;5.60;;
966;SDS011;56108;48.730;9.304;2022-08-21T00:59:08;6.78;;;5.10;;
966;SDS011;56108;48.730;9.304;2022-08-21T01:01:16;5.28;;;4.60;;
966;SDS011;56108;48.730;9.304;2022-08-21T01:03:25;10.52;;;5.35;;
966;SDS011;56108;48.730;9.304;2022-08-21T01:05:33;6.32;;;5.75;;
966;SDS011;56108;48.730;9.304;2022-08-21T01:07:42;5.53;;;5.05;;
966;SDS011;56108;48.730;9.304;2022-08-21T01:09:50;5.45;;;5.05;;
966;SDS011;56108;48.730;9.304;2022-08-21T01:12:00;6.93;;;5.53;;
966;SDS011;56108;48.730;9.304;2022-08-21T01:14:11;6.32;;;5.72;;
966;SDS011;56108;48.730;9.304;2022-08-21T01:16:22;6.63;;;5.30;;
966;SDS011;56108;48.730;9.304;2022-08-21T01:18:31;8.15;;;5.55;;
966;SDS011;56108;48.730;9.304;2022-08-21T01:20:43;5.55;;;5.15;;
966;SDS011;56108;48.730;9.304;2022-08-21T01:23:04;6.40;;;5.80;;
966;SDS011;56108;48.730;9.304;2022-08-21T01:25:15;5.65;;;5.15;;
966;SDS011;56108;48.730;9.304;2022-08-21T01:27:25;6.15;;;5.55;;
966;SDS011;56108;48.730;9.304;2022-08-21T01:29:39;5.78;;;5.38;;
966;SDS011;56108;48.730;9.304;2022-08-21T01:31:54;6.85;;;5.43;;
966;SDS011;56108;48.730;9.304;2022-08-21T01:34:04;6.40;;;5.82;;
966;SDS011;56108;48.730;9.304;2022-08-21T01:36:16;8.18;;;5.30;;
966;SDS011;56108;48.730;9.304;2022-08-21T01:38:25;6.40;;;5.90;;
966;SDS011;56108;48.730;9.304;2022-08-21T01:40:34;6.97;;;6.22;;
966;SDS011;56108;48.730;9.304;2022-08-21T01:42:43;6.88;;;6.07;;
966;SDS011;56108;48.730;9.304;2022-08-21T01:44:53;6.50;;;5.90;;
966;SDS011;56108;48.730;9.304;2022-08-21T01:47:03;6.65;;;6.15;;
966;SDS011;56108;48.730;9.304;2022-08-21T01:49:13;6.63;;;6.13;;
966;SDS011;56108;48.730;9.304;2022-08-21T01:51:24;6.50;;;6.00;;
966;SDS011;56108;48.730;9.304;2022-08-21T01:53:33;6.63;;;6.03;;
966;SDS011;56108;48.730;9.304;2022-08-21T01:55:43;6.45;;;5.95;;
966;SDS011;56108;48.730;9.304;2022-08-21T01:57:51;8.60;;;7.25;;
966;SDS011;56108;48.730;9.304;2022-08-21T02:00:00;6.43;;;5.82;;
966;SDS011;56108;48.730;9.304;2022-08-21T02:02:15;7.05;;;5.93;;
966;SDS011;56108;48.730;9.304;2022-08-21T02:04:23;9.18;;;6.32;;
966;SDS011;56108;48.730;9.304;2022-08-21T02:06:34;8.10;;;7.22;;
966;SDS011;56108;48.730;9.304;2022-08-21T02:08:43;6.72;;;6.07;;
966;SDS011;56108;48.730;9.304;2022-08-21T02:10:51;7.45;;;6.68;;
966;SDS011;56108;48.730;9.304;2022-08-21T02:13:00;7.63;;;7.05;;
966;SDS011;56108;48.730;9.304;2022-08-21T02:15:08;7.60;;;6.18;;
966;SDS011;56108;48.730;9.304;2022-08-21T02:17:16;6.43;;;5.82;;
966;SDS011;56108;48.730;9.304;2022-08-21T02:19:24;8.50;;;7.32;;
966;SDS011;56108;48.730;9.304;2022-08-21T02:21:46;7.68;;;7.07;;
966;SDS011;56108;48.730;9.304;2022-08-21T02:23:56;6.63;;;6.15;;
966;SDS011;56108;48.730;9.304;2022-08-21T02:26:04;7.80;;;7.00;;
966;SDS011;56108;48.730;9.304;2022-08-21T02:28:14;8.60;;;7.90;;
966;SDS011;56108;48.730;9.304;2022-08-21T02:30:23;8.02;;;7.32;;
966;SDS011;56108;48.730;9.304;2022-08-21T02:32:33;8.52;;;7.70;;
966;SDS011;56108;48.730;9.304;2022-08-21T02:34:41;8.38;;;7.68;;
966;SDS011;56108;48.730;9.304;2022-08-21T02:36:51;9.00;;;8.20;;
966;SDS011;56108;48.730;9.304;2022-08-21T02:39:03;7.60;;;7.00;;
966;SDS011;56108;48.730;9.304;2022-08-21T02:41:12;9.48;;;8.57;;
966;SDS011;56108;48.730;9.304;2022-08-21T02:43:23;9.48;;;8.68;;
966;SDS011;56108;48.730;9.304;2022-08-21T02:45:33;8.05;;;7.40;;
966;SDS011;56108;48.730;9.304;2022-08-21T02:47:46;9.35;;;8.63;;
966;SDS011;56108;48.730;9.304;2022-08-21T02:49:54;8.25;;;7.45;;
966;SDS011;56108;48.730;9.304;2022-08-21T02:52:05;8.45;;;7.80;;
966;SDS011;56108;48.730;9.304;2022-08-21T02:54:13;10.80;;;9.70;;
966;SDS011;56108;48.730;9.304;2022-08-21T02:56:21;9.07;;;8.38;;
966;SDS011;56108;48.730;9.304;2022-08-21T02:58:37;10.63;;;7.45;;
966;SDS011;56108;48.730;9.304;2022-08-21T03:00:48;8.05;;;7.35;;
966;SDS011;56108;48.730;9.304;2022-08-21T03:02:56;7.75;;;7.05;;
966;SDS011;56108;48.730;9.304;2022-08-21T03:05:06;8.13;;;7.43;;
966;SDS011;56108;48.730;9.304;2022-08-21T03:07:18;8.68;;;8.07;;
966;SDS011;56108;48.730;9.304;2022-08-21T03:09:26;8.32;;;7.63;;
966;SDS011;56108;48.730;9.304;2022-08-21T03:11:34;8.55;;;7.80;;
966;SDS011;56108;48.730;9.304;2022-08-21T03:13:43;9.15;;;7.80;;
966;SDS011;56108;48.730;9.304;2022-08-21T03:15:51;9.27;;;8.38;;
966;SDS011;56108;48.730;9.304;2022-08-21T03:18:02;8.80;;;8.10;;
966;SDS011;56108;48.730;9.304;2022-08-21T03:20:12;10.20;;;9.27;;
966;SDS011;56108;48.730;9.304;2022-08-21T03:22:24;9.63;;;8.70;;
966;SDS011;56108;48.730;9.304;2022-08-21T03:24:34;9.90;;;9.00;;
966;SDS011;56108;48.730;9.304;2022-08-21T03:26:47;9.57;;;8.77;;
966;SDS011;56108;48.730;9.304;2022-08-21T03:28:55;9.63;;;8.68;;
966;SDS011;56108;48.730;9.304;2022-08-21T03:31:04;10.60;;;9.70;;
966;SDS011;56108;48.730;9.304;2022-08-21T03:33:13;10.13;;;9.32;;
966;SDS011;56108;48.730;9.304;2022-08-21T03:35:28;9.20;;;8.30;;
966;SDS011;56108;48.730;9.304;2022-08-21T03:37:39;10.75;;;9.75;;
966;SDS011;56108;48.730;9.304;2022-08-21T03:39:47;10.30;;;9.40;;
966;SDS011;56108;48.730;9.304;2022-08-21T03:41:55;10.43;;;9.63;;
966;SDS011;56108;48.730;9.304;2022-08-21T03:44:04;11.38;;;9.27;;
966;SDS011;56108;48.730;9.304;2022-08-21T03:46:12;9.95;;;9.15;;
966;SDS011;56108;48.730;9.304;2022-08-21T03:48:20;10.80;;;9.82;;
966;SDS011;56108;48.730;9.304;2022-08-21T03:50:29;11.20;;;10.02;;
966;SDS011;56108;48.730;9.304;2022-08-21T03:52:47;10.05;;;9.07;;
966;SDS011;56108;48.730;9.304;2022-08-21T03:54:55;11.00;;;10.00;;
966;SDS011;56108;48.730;9.304;2022-08-21T03:57:03;11.40;;;9.70;;
966;SDS011;56108;48.730;9.304;2022-08-21T03:59:11;10.38;;;9.20;;
966;SDS011;56108;48.730;9.304;2022-08-21T04:01:21;10.65;;;9.70;;
966;SDS011;56108;48.730;9.304;2022-08-21T04:03:30;10.30;;;9.50;;
966;SDS011;56108;48.730;9.304;2022-08-21T04:05:39;10.63;;;9.63;;
966;SDS011;56108;48.730;9.304;2022-08-21T04:07:52;10.18;;;9.38;;
966;SDS011;56108;48.730;9.304;2022-08-21T04:10:12;10.00;;;9.10;;
966;SDS011;56108;48.730;9.304;2022-08-21T04:12:21;10.68;;;9.68;;
966;SDS011;56108;48.730;9.304;2022-08-21T04:14:29;11.13;;;10.13;;
966;SDS011;56108;48.730;9.304;2022-08-21T04:16:37;10.30;;;9.27;;
966;SDS011;56108;48.730;9.304;2022-08-21T04:18:45;13.57;;;10.25;;
966;SDS011;56108;48.730;9.304;2022-08-21T04:20:53;11.15;;;10.15;;
966;SDS011;56108;48.730;9.304;2022-08-21T04:23:05;11.30;;;10.20;;
966;SDS011;56108;48.730;9.304;2022-08-21T04:25:26;11.32;;;10.32;;
966;SDS011;56108;48.730;9.304;2022-08-21T04:27:36;11.15;;;10.15;;
966;SDS011;56108;48.730;9.304;2022-08-21T04:29:44;12.88;;;11.40;;
966;SDS011;56108;48.730;9.304;2022-08-21T04:31:52;11.50;;;10.40;;
966;SDS011;56108;48.730;9.304;2022-08-21T04:34:00;12.95;;;10.07;;
966;SDS011;56108;48.730;9.304;2022-08-21T04:36:09;11.63;;;10.63;;
966;SDS011;56108;48.730;9.304;2022-08-21T04:38:20;11.95;;;10.80;;
966;SDS011;56108;48.730;9.304;2022-08-21T04:40:29;12.13;;;10.30;;
966;SDS011;56108;48.730;9.304;2022-08-21T04:42:41;12.73;;;10.77;;
966;SDS011;56108;48.730;9.304;2022-08-21T04:44:51;13.23;;;11.30;;
966;SDS011;56108;48.730;9.304;2022-08-21T04:47:01;12.45;;;11.25;;
966;SDS011;56108;48.730;9.304;2022-08-21T04:49:11;12.30;;;11.25;;
966;SDS011;56108;48.730;9.304;2022-08-21T04:51:21;11.60;;;9.95;;
966;SDS011;56108;48.730;9.304;2022-08-21T04:53:38;12.45;;;11.35;;
966;SDS011;56108;48.730;9.304;2022-08-21T04:55:49;13.32;;;12.18;;
966;SDS011;56108;48.730;9.304;2022-08-21T04:57:58;13.65;;;12.25;;
966;SDS011;56108;48.730;9.304;2022-08-21T05:00:08;12.60;;;11.40;;
966;SDS011;56108;48.730;9.304;2022-08-21T05:02:18;11.27;;;10.18;;
966;SDS011;56108;48.730;9.304;2022-08-21T05:04:30;10.77;;;9.88;;
966;SDS011;56108;48.730;9.304;2022-08-21T05:06:42;8.73;;;8.05;;
966;SDS011;56108;48.730;9.304;2022-08-21T05:08:56;7.93;;;7.22;;
966;SDS011;56108;48.730;9.304;2022-08-21T05:11:06;7.40;;;6.80;;
966;SDS011;56108;48.730;9.304;2022-08-21T05:13:15;6.50;;;6.03;;
966;SDS011;56108;48.730;9.304;2022-08-21T05:15:25;6.82;;;6.20;;
966;SDS011;56108;48.730;9.304;2022-08-21T05:17:35;6.45;;;5.65;;
966;SDS011;56108;48.730;9.304;2022-08-21T05:19:43;5.90;;;5.45;;
966;SDS011;56108;48.730;9.304;2022-08-21T05:21:51;7.20;;;5.45;;
966;SDS011;56108;48.730;9.304;2022-08-21T05:24:02;5.65;;;5.15;;
966;SDS011;56108;48.730;9.304;2022-08-21T05:26:11;5.22;;;4.72;;
966;SDS011;56108;48.730;9.304;2022-08-21T05:28:22;5.50;;;5.10;;
966;SDS011;56108;48.730;9.304;2022-08-21T05:30:30;4.27;;;4.07;;
966;SDS011;56108;48.730;9.304;2022-08-21T05:32:38;4.80;;;4.40;;
966;SDS011;56108;48.730;9.304;2022-08-21T05:34:46;4.77;;;4.47;;
966;SDS011;56108;48.730;9.304;2022-08-21T05:36:54;5.00;;;4.70;;
966;SDS011;56108;48.730;9.304;2022-08-21T05:39:08;4.53;;;4.27;;
966;SDS011;56108;48.730;9.304;2022-08-21T05:41:16;4.73;;;4.37;;
966;SDS011;56108;48.730;9.304;2022-08-21T05:43:24;4.97;;;4.57;;
966;SDS011;56108;48.730;9.304;2022-08-21T05:45:33;4.20;;;4.00;;
966;SDS011;56108;48.730;9.304;2022-08-21T05:47:47;4.63;;;4.23;;
966;SDS011;56108;48.730;9.304;2022-08-21T05:49:55;5.57;;;4.97;;
966;SDS011;56108;48.730;9.304;2022-08-21T05:52:03;4.80;;;4.50;;
966;SDS011;56108;48.730;9.304;2022-08-21T05:54:14;4.63;;;4.33;;
966;SDS011;56108;48.730;9.304;2022-08-21T05:56:23;4.53;;;4.13;;
966;SDS011;56108;48.730;9.304;2022-08-21T05:58:32;5.40;;;4.90;;
966;SDS011;56108;48.730;9.304;2022-08-21T06:00:40;4.87;;;4.57;;
966;SDS011;56108;48.730;9.304;2022-08-21T06:02:49;4.97;;;4.60;;
966;SDS011;56108;48.730;9.304;2022-08-21T06:04:57;4.63;;;4.23;;
966;SDS011;56108;48.730;9.304;2022-08-21T06:07:05;4.40;;;4.10;;
966;SDS011;56108;48.730;9.304;2022-08-21T06:09:18;3.80;;;3.60;;
966;SDS011;56108;48.730;9.304;2022-08-21T06:11:25;4.90;;;4.60;;
966;SDS011;56108;48.730;9.304;2022-08-21T06:13:33;4.83;;;4.43;;
966;SDS011;56108;48.730;9.304;2022-08-21T06:15:45;4.40;;;4.20;;
966;SDS011;56108;48.730;9.304;2022-08-21T06:17:54;4.93;;;3.87;;
966;SDS011;56108;48.730;9.304;2022-08-21T06:20:02;4.70;;;4.23;;
966;SDS011;56108;48.730;9.304;2022-08-21T06:22:11;4.33;;;4.03;;
966;SDS011;56108;48.730;9.304;2022-08-21T06:24:22;4.50;;;4.10;;
966;SDS011;56108;48.730;9.304;2022-08-21T06:26:30;4.63;;;3.97;;
966;SDS011;56108;48.730;9.304;2022-08-21T06:28:39;4.50;;;4.10;;
966;SDS011;56108;48.730;9.304;2022-08-21T06:30:48;4.73;;;4.43;;
966;SDS011;56108;48.730;9.304;2022-08-21T06:32:57;4.60;;;4.30;;
966;SDS011;56108;48.730;9.304;2022-08-21T06:35:06;4.97;;;4.67;;
966;SDS011;56108;48.730;9.304;2022-08-21T06:37:15;4.40;;;4.10;;
966;SDS011;56108;48.730;9.304;2022-08-21T06:39:25;4.40;;;4.00;;
966;SDS011;56108;48.730;9.304;2022-08-21T06:41:35;4.90;;;4.50;;
966;SDS011;56108;48.730;9.304;2022-08-21T06:43:46;3.83;;;3.63;;
966;SDS011;56108;48.730;9.304;2022-08-21T06:45:54;4.57;;;4.07;;
966;SDS011;56108;48.730;9.304;2022-08-21T06:48:06;5.07;;;4.77;;
966;SDS011;56108;48.730;9.304;2022-08-21T06:50:26;4.30;;;4.00;;
966;SDS011;56108;48.730;9.304;2022-08-21T06:52:57;4.20;;;4.00;;
966;SDS011;56108;48.730;9.304;2022-08-21T06:55:11;4.00;;;3.70;;
966;SDS011;56108;48.730;9.304;2022-08-21T06:57:26;4.43;;;4.13;;
966;SDS011;56108;48.730;9.304;2022-08-21T06:59:34;4.17;;;3.97;;
966;SDS011;56108;48.730;9.304;2022-08-21T07:01:42;4.43;;;4.07;;
966;SDS011;56108;48.730;9.304;2022-08-21T07:03:50;4.30;;;4.10;;
966;SDS011;56108;48.730;9.304;2022-08-21T07:06:01;4.30;;;4.00;;
966;SDS011;56108;48.730;9.304;2022-08-21T07:08:09;4.10;;;3.80;;
966;SDS011;56108;48.730;9.304;2022-08-21T07:10:19;4.17;;;3.97;;
966;SDS011;56108;48.730;9.304;2022-08-21T07:12:27;3.80;;;3.60;;
966;SDS011;56108;48.730;9.304;2022-08-21T07:14:35;4.37;;;4.17;;
966;SDS011;56108;48.730;9.304;2022-08-21T07:16:44;4.70;;;4.40;;
966;SDS011;56108;48.730;9.304;2022-08-21T07:18:53;3.70;;;3.50;;
966;SDS011;56108;48.730;9.304;2022-08-21T07:21:01;4.60;;;4.30;;
966;SDS011;56108;48.730;9.304;2022-08-21T07:23:11;3.70;;;3.50;;
966;SDS011;56108;48.730;9.304;2022-08-21T07:25:28;4.07;;;3.87;;
966;SDS011;56108;48.730;9.304;2022-08-21T07:27:36;4.73;;;4.40;;
966;SDS011;56108;48.730;9.304;2022-08-21T07:29:44;4.67;;;4.37;;
966;SDS011;56108;48.730;9.304;2022-08-21T07:31:52;4.43;;;4.23;;
966;SDS011;56108;48.730;9.304;2022-08-21T07:34:01;4.83;;;4.53;;
966;SDS011;56108;48.730;9.304;2022-08-21T07:36:09;4.17;;;3.97;;
966;SDS011;56108;48.730;9.304;2022-08-21T07:38:19;4.17;;;3.97;;
966;SDS011;56108;48.730;9.304;2022-08-21T07:40:29;4.07;;;3.83;;
966;SDS011;56108;48.730;9.304;2022-08-21T07:42:39;6.40;;;3.90;;
966;SDS011;56108;48.730;9.304;2022-08-21T07:44:48;4.90;;;4.60;;
966;SDS011;56108;48.730;9.304;2022-08-21T07:46:59;4.97;;;4.57;;
966;SDS011;56108;48.730;9.304;2022-08-21T07:49:08;5.00;;;4.60;;
966;SDS011;56108;48.730;9.304;2022-08-21T07:51:16;4.60;;;4.30;;
966;SDS011;56108;48.730;9.304;2022-08-21T07:53:25;3.63;;;3.43;;
966;SDS011;56108;48.730;9.304;2022-08-21T07:55:35;4.50;;;4.20;;
966;SDS011;56108;48.730;9.304;2022-08-21T07:57:44;4.10;;;3.90;;
966;SDS011;56108;48.730;9.304;2022-08-21T07:59:52;4.63;;;4.43;;
966;SDS011;56108;48.730;9.304;2022-08-21T08:02:00;4.07;;;3.77;;
966;SDS011;56108;48.730;9.304;2022-08-21T08:04:08;4.60;;;4.40;;
966;SDS011;56108;48.730;9.304;2022-08-21T08:06:16;4.67;;;4.37;;
966;SDS011;56108;48.730;9.304;2022-08-21T08:08:25;4.93;;;4.33;;
966;SDS011;56108;48.730;9.304;2022-08-21T08:10:36;5.30;;;4.90;;
966;SDS011;56108;48.730;9.304;2022-08-21T08:12:47;6.70;;;4.53;;
966;SDS011;56108;48.730;9.304;2022-08-21T08:14:56;5.50;;;5.03;;
966;SDS011;56108;48.730;9.304;2022-08-21T08:17:05;5.60;;;5.20;;
966;SDS011;56108;48.730;9.304;2022-08-21T08:19:13;5.47;;;5.17;;
966;SDS011;56108;48.730;9.304;2022-08-21T08:21:22;5.47;;;4.93;;
966;SDS011;56108;48.730;9.304;2022-08-21T08:23:30;5.77;;;5.37;;
966;SDS011;56108;48.730;9.304;2022-08-21T08:25:41;5.77;;;5.30;;
966;SDS011;56108;48.730;9.304;2022-08-21T08:27:49;6.50;;;5.43;;
966;SDS011;56108;48.730;9.304;2022-08-21T08:29:58;6.10;;;5.53;;
966;SDS011;56108;48.730;9.304;2022-08-21T08:32:06;6.27;;;5.87;;
966;SDS011;56108;48.730;9.304;2022-08-21T08:34:17;5.50;;;5.10;;
966;SDS011;56108;48.730;9.304;2022-08-21T08:36:31;6.10;;;5.70;;
966;SDS011;56108;48.730;9.304;2022-08-21T08:38:43;6.17;;;5.67;;
966;SDS011;56108;48.730;9.304;2022-08-21T08:40:55;6.33;;;5.83;;
966;SDS011;56108;48.730;9.304;2022-08-21T08:43:09;7.10;;;6.40;;
966;SDS011;56108;48.730;9.304;2022-08-21T08:45:19;6.17;;;5.63;;
966;SDS011;56108;48.730;9.304;2022-08-21T08:47:31;6.47;;;5.97;;
966;SDS011;56108;48.730;9.304;2022-08-21T08:49:43;7.23;;;5.43;;
966;SDS011;56108;48.730;9.304;2022-08-21T08:52:02;6.00;;;5.50;;
966;SDS011;56108;48.730;9.304;2022-08-21T08:54:13;6.40;;;5.87;;
966;SDS011;56108;48.730;9.304;2022-08-21T08:56:32;6.87;;;6.30;;
966;SDS011;56108;48.730;9.304;2022-08-21T08:58:41;6.10;;;5.50;;
966;SDS011;56108;48.730;9.304;2022-08-21T09:00:52;6.87;;;6.27;;
966;SDS011;56108;48.730;9.304;2022-08-21T09:03:03;6.40;;;5.90;;
966;SDS011;56108;48.730;9.304;2022-08-21T09:05:21;7.00;;;6.50;;
966;SDS011;56108;48.730;9.304;2022-08-21T09:07:33;6.40;;;5.90;;
966;SDS011;56108;48.730;9.304;2022-08-21T09:09:48;6.40;;;5.80;;
966;SDS011;56108;48.730;9.304;2022-08-21T09:12:12;6.33;;;5.70;;
966;SDS011;56108;48.730;9.304;2022-08-21T09:14:39;6.37;;;5.73;;
966;SDS011;56108;48.730;9.304;2022-08-21T09:16:59;5.43;;;4.90;;
966;SDS011;56108;48.730;9.304;2022-08-21T09:19:15;5.77;;;5.37;;
966;SDS011;56108;48.730;9.304;2022-08-21T09:21:37;5.80;;;5.40;;
966;SDS011;56108;48.730;9.304;2022-08-21T09:23:55;6.77;;;6.03;;
966;SDS011;56108;48.730;9.304;2022-08-21T09:26:12;6.60;;;5.30;;
966;SDS011;56108;48.730;9.304;2022-08-21T09:28:24;6.13;;;5.57;;
966;SDS011;56108;48.730;9.304;2022-08-21T09:30:32;5.27;;;4.87;;
966;SDS011;56108;48.730;9.304;2022-08-21T09:32:40;4.80;;;4.40;;
966;SDS011;56108;48.730;9.304;2022-08-21T09:34:55;5.13;;;4.73;;
966;SDS011;56108;48.730;9.304;2022-08-21T09:37:05;4.30;;;4.00;;
966;SDS011;56108;48.730;9.304;2022-08-21T09:39:24;5.20;;;4.80;;
966;SDS011;56108;48.730;9.304;2022-08-21T09:41:35;5.70;;;5.30;;
966;SDS011;56108;48.730;9.304;2022-08-21T09:43:51;5.17;;;4.67;;
966;SDS011;56108;48.730;9.304;2022-08-21T09:46:05;4.57;;;3.87;;
966;SDS011;56108;48.730;9.304;2022-08-21T09:48:17;4.80;;;4.50;;
966;SDS011;56108;48.730;9.304;2022-08-21T09:50:30;5.00;;;4.50;;
966;SDS011;56108;48.730;9.304;2022-08-21T09:52:42;4.90;;;4.60;;
966;SDS011;56108;48.730;9.304;2022-08-21T09:54:55;4.37;;;4.03;;
966;SDS011;56108;48.730;9.304;2022-08-21T09:57:10;4.47;;;4.17;;
966;SDS011;56108;48.730;9.304;2022-08-21T09:59:36;5.07;;;4.67;;
966;SDS011;56108;48.730;9.304;2022-08-21T10:01:45;4.83;;;4.50;;
966;SDS011;56108;48.730;9.304;2022-08-21T10:04:01;3.90;;;3.70;;
966;SDS011;56108;48.730;9.304;2022-08-21T10:06:20;4.90;;;4.50;;
966;SDS011;56108;48.730;9.304;2022-08-21T10:08:31;4.90;;;4.50;;
966;SDS011;56108;48.730;9.304;2022-08-21T10:10:40;5.50;;;5.00;;
966;SDS011;56108;48.730;9.304;2022-08-21T10:12:49;9.27;;;8.47;;
966;SDS011;56108;48.730;9.304;2022-08-21T10:15:08;5.83;;;4.87;;
966;SDS011;56108;48.730;9.304;2022-08-21T10:17:25;7.30;;;6.70;;
966;SDS011;56108;48.730;9.304;2022-08-21T10:19:42;5.63;;;5.23;;
966;SDS011;56108;48.730;9.304;2022-08-21T10:21:58;4.67;;;4.27;;
966;SDS011;56108;48.730;9.304;2022-08-21T10:24:12;4.33;;;4.00;;
966;SDS011;56108;48.730;9.304;2022-08-21T10:26:39;5.97;;;4.60;;
966;SDS011;56108;48.730;9.304;2022-08-21T10:28:59;5.20;;;4.80;;
966;SDS011;56108;48.730;9.304;2022-08-21T10:31:18;5.23;;;4.73;;
966;SDS011;56108;48.730;9.304;2022-08-21T10:33:36;5.03;;;4.53;;
966;SDS011;56108;48.730;9.304;2022-08-21T10:35:52;4.60;;;4.30;;
966;SDS011;56108;48.730;9.304;2022-08-21T10:38:15;3.67;;;3.37;;
966;SDS011;56108;48.730;9.304;2022-08-21T10:41:05;4.57;;;4.17;;
966;SDS011;56108;48.730;9.304;2022-08-21T10:43:21;5.40;;;4.60;;
966;SDS011;56108;48.730;9.304;2022-08-21T10:45:38;4.70;;;4.40;;
966;SDS011;56108;48.730;9.304;2022-08-21T10:48:01;5.43;;;5.07;;
966;SDS011;56108;48.730;9.304;2022-08-21T10:50:13;4.83;;;4.53;;
966;SDS011;56108;48.730;9.304;2022-08-21T10:52:36;4.47;;;4.07;;
966;SDS011;56108;48.730;9.304;2022-08-21T10:54:56;5.77;;;3.60;;
966;SDS011;56108;48.730;9.304;2022-08-21T10:57:12;5.07;;;4.07;;
966;SDS011;56108;48.730;9.304;2022-08-21T10:59:38;6.33;;;5.83;;
966;SDS011;56108;48.730;9.304;2022-08-21T11:01:58;4.13;;;3.83;;
966;SDS011;56108;48.730;9.304;2022-08-21T11:04:15;5.77;;;5.00;;
966;SDS011;56108;48.730;9.304;2022-08-21T11:06:30;15.13;;;14.03;;
966;SDS011;56108;48.730;9.304;2022-08-21T11:08:41;9.70;;;8.97;;
966;SDS011;56108;48.730;9.304;2022-08-21T11:10:52;6.03;;;5.53;;
966;SDS011;56108;48.730;9.304;2022-08-21T11:13:05;5.60;;;5.20;;
966;SDS011;56108;48.730;9.304;2022-08-21T11:15:24;6.07;;;5.57;;
966;SDS011;56108;48.730;9.304;2022-08-21T11:17:41;4.80;;;4.50;;
966;SDS011;56108;48.730;9.304;2022-08-21T11:19:59;4.80;;;4.40;;
966;SDS011;56108;48.730;9.304;2022-08-21T11:22:14;5.40;;;5.07;;
966;SDS011;56108;48.730;9.304;2022-08-21T11:24:31;5.43;;;4.97;;
966;SDS011;56108;48.730;9.304;2022-08-21T11:26:48;5.00;;;4.60;;
966;SDS011;56108;48.730;9.304;2022-08-21T11:29:01;5.30;;;4.90;;
966;SDS011;56108;48.730;9.304;2022-08-21T11:31:21;5.23;;;4.83;;
966;SDS011;56108;48.730;9.304;2022-08-21T11:33:47;5.70;;;5.20;;
966;SDS011;56108;48.730;9.304;2022-08-21T11:36:11;5.90;;;4.87;;
966;SDS011;56108;48.730;9.304;2022-08-21T11:38:28;5.00;;;4.60;;
966;SDS011;56108;48.730;9.304;2022-08-21T11:40:49;6.40;;;5.90;;
966;SDS011;56108;48.730;9.304;2022-08-21T11:43:10;7.00;;;6.07;;
966;SDS011;56108;48.730;9.304;2022-08-21T11:45:25;6.00;;;5.50;;
966;SDS011;56108;48.730;9.304;2022-08-21T11:47:46;5.70;;;4.80;;
966;SDS011;56108;48.730;9.304;2022-08-21T11:50:06;5.13;;;4.83;;
966;SDS011;56108;48.730;9.304;2022-08-21T11:52:42;5.97;;;5.30;;
966;SDS011;56108;48.730;9.304;2022-08-21T11:54:57;5.90;;;5.40;;
966;SDS011;56108;48.730;9.304;2022-08-21T11:57:13;6.20;;;5.70;;
966;SDS011;56108;48.730;9.304;2022-08-21T11:59:27;5.80;;;4.93;;
966;SDS011;56108;48.730;9.304;2022-08-21T12:01:44;5.80;;;5.20;;
966;SDS011;56108;48.730;9.304;2022-08-21T12:03:57;4.93;;;4.63;;
966;SDS011;56108;48.730;9.304;2022-08-21T12:06:11;5.60;;;5.10;;
966;SDS011;56108;48.730;9.304;2022-08-21T12:08:31;5.70;;;5.20;;
966;SDS011;56108;48.730;9.304;2022-08-21T12:10:45;5.80;;;5.23;;
966;SDS011;56108;48.730;9.304;2022-08-21T12:13:07;5.43;;;4.93;;
966;SDS011;56108;48.730;9.304;2022-08-21T12:15:25;4.50;;;4.20;;
966;SDS011;56108;48.730;9.304;2022-08-21T12:17:35;4.73;;;4.33;;
966;SDS011;56108;48.730;9.304;2022-08-21T12:19:56;4.73;;;4.43;;
966;SDS011;56108;48.730;9.304;2022-08-21T12:22:09;5.73;;;4.90;;
966;SDS011;56108;48.730;9.304;2022-08-21T12:24:32;5.17;;;4.73;;
966;SDS011;56108;48.730;9.304;2022-08-21T12:26:48;5.87;;;5.37;;
966;SDS011;56108;48.730;9.304;2022-08-21T12:29:04;5.20;;;4.50;;
966;SDS011;56108;48.730;9.304;2022-08-21T12:31:28;5.17;;;4.77;;
966;SDS011;56108;48.730;9.304;2022-08-21T12:33:37;4.50;;;4.20;;
966;SDS011;56108;48.730;9.304;2022-08-21T12:35:48;5.20;;;4.70;;
966;SDS011;56108;48.730;9.304;2022-08-21T12:37:59;4.30;;;4.10;;
966;SDS011;56108;48.730;9.304;2022-08-21T12:40:20;5.27;;;4.77;;
966;SDS011;56108;48.730;9.304;2022-08-21T12:42:31;5.10;;;4.70;;
966;SDS011;56108;48.730;9.304;2022-08-21T12:44:46;4.53;;;4.17;;
966;SDS011;56108;48.730;9.304;2022-08-21T12:46:59;6.03;;;4.73;;
966;SDS011;56108;48.730;9.304;2022-08-21T12:49:13;4.27;;;3.87;;
966;SDS011;56108;48.730;9.304;2022-08-21T12:51:26;4.27;;;3.97;;
966;SDS011;56108;48.730;9.304;2022-08-21T12:53:44;4.43;;;4.03;;
966;SDS011;56108;48.730;9.304;2022-08-21T12:56:08;4.43;;;4.10;;
966;SDS011;56108;48.730;9.304;2022-08-21T12:58:20;5.27;;;4.77;;
966;SDS011;56108;48.730;9.304;2022-08-21T13:00:36;3.97;;;3.70;;
966;SDS011;56108;48.730;9.304;2022-08-21T13:02:45;3.70;;;3.50;;
966;SDS011;56108;48.730;9.304;2022-08-21T13:05:02;4.20;;;3.70;;
966;SDS011;56108;48.730;9.304;2022-08-21T13:07:15;4.00;;;3.70;;
966;SDS011;56108;48.730;9.304;2022-08-21T13:09:34;4.20;;;3.80;;
966;SDS011;56108;48.730;9.304;2022-08-21T13:11:46;4.57;;;4.27;;
966;SDS011;56108;48.730;9.304;2022-08-21T13:13:56;4.17;;;3.87;;
966;SDS011;56108;48.730;9.304;2022-08-21T13:16:08;3.97;;;3.67;;
966;SDS011;56108;48.730;9.304;2022-08-21T13:18:21;4.07;;;3.83;;
966;SDS011;56108;48.730;9.304;2022-08-21T13:20:32;4.03;;;3.80;;
966;SDS011;56108;48.730;9.304;2022-08-21T13:22:45;4.63;;;4.23;;
966;SDS011;56108;48.730;9.304;2022-08-21T13:24:54;3.23;;;3.03;;
966;SDS011;56108;48.730;9.304;2022-08-21T13:27:21;3.30;;;3.10;;
966;SDS011;56108;48.730;9.304;2022-08-21T13:29:33;3.57;;;3.23;;
966;SDS011;56108;48.730;9.304;2022-08-21T13:31:45;4.00;;;3.70;;
966;SDS011;56108;48.730;9.304;2022-08-21T13:33:56;4.37;;;4.07;;
966;SDS011;56108;48.730;9.304;2022-08-21T13:36:07;4.00;;;3.70;;
966;SDS011;56108;48.730;9.304;2022-08-21T13:38:19;3.13;;;3.03;;
966;SDS011;56108;48.730;9.304;2022-08-21T13:40:31;3.73;;;3.50;;